Pagina principale
METAR-TAF:

METAR-TAF

Aeroporti :

Aeroporto Internazionale L. F. Wade

Bermuda, Bermuda

latitudine: 32-22N, longitudine: 064-41W, altezza: 6 m

Osservazione

Il bollettino è stato emesso 44 minuti fa, alle 22:55 UTC
Vento 8 kt da sud-est
Temperature 23°C
Umidità 73%
Pressione 1017 hPa
Visibilità 10 km o più
Nubi sparse ad un'altezza di 3200 ft
Nubi sparse ad un'altezza di 7500 ft
Nuvoloso ad un'altezza di 30000 ft

METAR: TXKF 202255Z 14008KT 9999 SCT032 SCT075 BKN300 23/18 Q1017

Ora: 20:39 (23:39 UTC)

Previsione

Il bollettino è stato emesso 5 ore e 55 minuti fa, alle 17:44 UTC
Previsione valida dal 20 alle 18 UTC al 21 alle 18 UTC
Vento 12 kt da sud/sud-est
Visibilità 10 km o più
Nubi sparse ad un'altezza di 3500 ft
Nuvoloso ad un'altezza di 6000 ft
Evoluzione graduale
dal 21 alle 06 UTC al 21 alle 09 UTC
Vento 15 kt da sud/sud-ovest

TAF: TXKF 201744Z 2018/2118 15012KT 9999 SCT035 BKN060 BECMG 2106/2109 20015KT

Osservazioni e previsioni meteorologiche di più di 4000 aeroporti (messaggi METAR e TAF).

Le stazioni disponibili sono rappresentate dai dischi gialli e rossi sulla carta.

Puntare il mouse per vedere il nome della stazione.

Clicca sopra per visualizzare le osservazioni e previsioni meteorologiche.

Per cambiare la mappa : fare clic sui pulsanti verdi con una croce nera per ingrandire, il pulsante verde con un trattino per diminuire, o sulla freccia verde per le mappe adiacenti.


METAR-TAF: